sensor_id;sensor_type;location;lat;lon;timestamp;P1;durP1;ratioP1;P2;durP2;ratioP2
45684;SDS011;46836;48.388;16.210;2023-05-17T00:00:40;7.28;;;6.57;;
45684;SDS011;46836;48.388;16.210;2023-05-17T00:03:07;6.63;;;5.40;;
45684;SDS011;46836;48.388;16.210;2023-05-17T00:05:34;6.40;;;5.80;;
45684;SDS011;46836;48.388;16.210;2023-05-17T00:08:01;6.70;;;6.00;;
45684;SDS011;46836;48.388;16.210;2023-05-17T00:10:28;6.18;;;5.30;;
45684;SDS011;46836;48.388;16.210;2023-05-17T00:12:56;5.68;;;5.15;;
45684;SDS011;46836;48.388;16.210;2023-05-17T00:15:23;6.63;;;5.65;;
45684;SDS011;46836;48.388;16.210;2023-05-17T00:17:50;5.63;;;5.13;;
45684;SDS011;46836;48.388;16.210;2023-05-17T00:20:17;6.20;;;5.57;;
45684;SDS011;46836;48.388;16.210;2023-05-17T00:22:44;6.05;;;5.45;;
45684;SDS011;46836;48.388;16.210;2023-05-17T00:25:12;6.15;;;5.40;;
45684;SDS011;46836;48.388;16.210;2023-05-17T00:27:39;4.47;;;4.07;;
45684;SDS011;46836;48.388;16.210;2023-05-17T00:30:06;5.60;;;5.10;;
45684;SDS011;46836;48.388;16.210;2023-05-17T00:32:34;6.15;;;5.20;;
45684;SDS011;46836;48.388;16.210;2023-05-17T00:35:01;5.38;;;4.30;;
45684;SDS011;46836;48.388;16.210;2023-05-17T00:37:28;4.38;;;3.60;;
45684;SDS011;46836;48.388;16.210;2023-05-17T00:39:55;4.85;;;3.72;;
45684;SDS011;46836;48.388;16.210;2023-05-17T00:42:22;4.70;;;4.25;;
45684;SDS011;46836;48.388;16.210;2023-05-17T00:44:50;6.57;;;4.57;;
45684;SDS011;46836;48.388;16.210;2023-05-17T00:47:17;3.45;;;3.05;;
45684;SDS011;46836;48.388;16.210;2023-05-17T00:49:44;4.72;;;3.90;;
45684;SDS011;46836;48.388;16.210;2023-05-17T00:52:12;4.05;;;3.75;;
45684;SDS011;46836;48.388;16.210;2023-05-17T00:54:39;3.33;;;3.03;;
45684;SDS011;46836;48.388;16.210;2023-05-17T00:57:06;3.50;;;3.15;;
45684;SDS011;46836;48.388;16.210;2023-05-17T00:59:34;3.63;;;3.33;;
45684;SDS011;46836;48.388;16.210;2023-05-17T01:02:02;4.05;;;3.60;;
45684;SDS011;46836;48.388;16.210;2023-05-17T01:04:30;3.40;;;2.97;;
45684;SDS011;46836;48.388;16.210;2023-05-17T01:06:58;3.45;;;3.15;;
45684;SDS011;46836;48.388;16.210;2023-05-17T01:09:25;3.70;;;3.40;;
45684;SDS011;46836;48.388;16.210;2023-05-17T01:17:16;3.00;;;2.50;;
45684;SDS011;46836;48.388;16.210;2023-05-17T01:22:38;3.08;;;2.80;;
45684;SDS011;46836;48.388;16.210;2023-05-17T01:25:14;4.78;;;3.38;;
45684;SDS011;46836;48.388;16.210;2023-05-17T01:28:04;2.83;;;2.63;;
45684;SDS011;46836;48.388;16.210;2023-05-17T01:30:33;3.13;;;2.83;;
45684;SDS011;46836;48.388;16.210;2023-05-17T01:33:02;3.00;;;2.80;;
45684;SDS011;46836;48.388;16.210;2023-05-17T01:35:30;3.25;;;2.95;;
45684;SDS011;46836;48.388;16.210;2023-05-17T01:37:57;2.70;;;2.50;;
45684;SDS011;46836;48.388;16.210;2023-05-17T01:40:24;2.88;;;2.50;;
45684;SDS011;46836;48.388;16.210;2023-05-17T01:43:02;3.20;;;3.00;;
45684;SDS011;46836;48.388;16.210;2023-05-17T01:45:37;3.30;;;3.00;;
45684;SDS011;46836;48.388;16.210;2023-05-17T01:48:30;2.58;;;2.38;;
45684;SDS011;46836;48.388;16.210;2023-05-17T01:51:01;3.50;;;2.78;;
45684;SDS011;46836;48.388;16.210;2023-05-17T01:53:29;2.92;;;2.70;;
45684;SDS011;46836;48.388;16.210;2023-05-17T01:56:03;3.10;;;2.90;;
45684;SDS011;46836;48.388;16.210;2023-05-17T01:58:38;3.03;;;2.80;;
45684;SDS011;46836;48.388;16.210;2023-05-17T02:01:11;5.10;;;3.13;;
45684;SDS011;46836;48.388;16.210;2023-05-17T02:03:41;3.33;;;3.03;;
45684;SDS011;46836;48.388;16.210;2023-05-17T02:06:08;3.03;;;2.80;;
45684;SDS011;46836;48.388;16.210;2023-05-17T02:08:35;3.45;;;3.15;;
45684;SDS011;46836;48.388;16.210;2023-05-17T02:11:02;3.53;;;3.25;;
45684;SDS011;46836;48.388;16.210;2023-05-17T02:13:29;2.95;;;2.70;;
45684;SDS011;46836;48.388;16.210;2023-05-17T02:16:00;4.50;;;4.10;;
45684;SDS011;46836;48.388;16.210;2023-05-17T02:18:28;5.03;;;3.80;;
45684;SDS011;46836;48.388;16.210;2023-05-17T02:20:55;3.30;;;3.00;;
45684;SDS011;46836;48.388;16.210;2023-05-17T02:23:22;3.08;;;2.85;;
45684;SDS011;46836;48.388;16.210;2023-05-17T02:25:50;3.70;;;3.40;;
45684;SDS011;46836;48.388;16.210;2023-05-17T02:28:18;3.50;;;3.20;;
45684;SDS011;46836;48.388;16.210;2023-05-17T02:30:45;3.90;;;3.60;;
45684;SDS011;46836;48.388;16.210;2023-05-17T02:33:12;3.88;;;3.58;;
45684;SDS011;46836;48.388;16.210;2023-05-17T02:35:40;5.78;;;3.50;;
45684;SDS011;46836;48.388;16.210;2023-05-17T02:38:07;5.55;;;3.88;;
45684;SDS011;46836;48.388;16.210;2023-05-17T02:40:34;4.07;;;3.70;;
45684;SDS011;46836;48.388;16.210;2023-05-17T02:43:01;4.22;;;3.85;;
45684;SDS011;46836;48.388;16.210;2023-05-17T02:45:29;3.33;;;3.03;;
45684;SDS011;46836;48.388;16.210;2023-05-17T02:47:56;5.00;;;3.92;;
45684;SDS011;46836;48.388;16.210;2023-05-17T02:50:23;8.57;;;4.40;;
45684;SDS011;46836;48.388;16.210;2023-05-17T02:52:50;4.40;;;4.00;;
45684;SDS011;46836;48.388;16.210;2023-05-17T02:55:17;7.65;;;3.75;;
45684;SDS011;46836;48.388;16.210;2023-05-17T02:57:44;2.90;;;2.63;;
45684;SDS011;46836;48.388;16.210;2023-05-17T03:00:12;6.45;;;4.45;;
45684;SDS011;46836;48.388;16.210;2023-05-17T03:02:39;4.50;;;4.10;;
45684;SDS011;46836;48.388;16.210;2023-05-17T03:05:07;7.20;;;4.10;;
45684;SDS011;46836;48.388;16.210;2023-05-17T03:07:34;4.90;;;4.50;;
45684;SDS011;46836;48.388;16.210;2023-05-17T03:10:01;4.35;;;4.05;;
45684;SDS011;46836;48.388;16.210;2023-05-17T03:12:28;5.63;;;4.60;;
45684;SDS011;46836;48.388;16.210;2023-05-17T03:14:55;6.35;;;4.82;;
45684;SDS011;46836;48.388;16.210;2023-05-17T03:17:22;5.18;;;4.68;;
45684;SDS011;46836;48.388;16.210;2023-05-17T03:19:50;5.32;;;4.82;;
45684;SDS011;46836;48.388;16.210;2023-05-17T03:22:17;5.32;;;4.25;;
45684;SDS011;46836;48.388;16.210;2023-05-17T03:24:45;5.30;;;4.70;;
45684;SDS011;46836;48.388;16.210;2023-05-17T03:27:12;5.20;;;4.70;;
45684;SDS011;46836;48.388;16.210;2023-05-17T03:29:39;6.40;;;4.75;;
45684;SDS011;46836;48.388;16.210;2023-05-17T03:32:07;6.25;;;4.25;;
45684;SDS011;46836;48.388;16.210;2023-05-17T03:34:34;5.60;;;4.65;;
45684;SDS011;46836;48.388;16.210;2023-05-17T03:37:01;5.40;;;4.90;;
45684;SDS011;46836;48.388;16.210;2023-05-17T03:39:28;3.97;;;3.65;;
45684;SDS011;46836;48.388;16.210;2023-05-17T03:41:56;6.63;;;5.00;;
45684;SDS011;46836;48.388;16.210;2023-05-17T03:44:23;4.70;;;4.30;;
45684;SDS011;46836;48.388;16.210;2023-05-17T03:46:53;7.15;;;3.50;;
45684;SDS011;46836;48.388;16.210;2023-05-17T03:49:21;6.22;;;4.63;;
45684;SDS011;46836;48.388;16.210;2023-05-17T03:51:48;5.55;;;4.22;;
45684;SDS011;46836;48.388;16.210;2023-05-17T03:54:15;5.00;;;4.50;;
45684;SDS011;46836;48.388;16.210;2023-05-17T03:56:42;7.78;;;4.35;;
45684;SDS011;46836;48.388;16.210;2023-05-17T03:59:14;4.88;;;4.10;;
45684;SDS011;46836;48.388;16.210;2023-05-17T04:01:42;5.25;;;4.18;;
45684;SDS011;46836;48.388;16.210;2023-05-17T04:04:10;4.85;;;3.90;;
45684;SDS011;46836;48.388;16.210;2023-05-17T04:06:37;5.13;;;3.92;;
45684;SDS011;46836;48.388;16.210;2023-05-17T04:09:06;5.22;;;4.00;;
45684;SDS011;46836;48.388;16.210;2023-05-17T04:11:36;5.43;;;4.90;;
45684;SDS011;46836;48.388;16.210;2023-05-17T04:14:03;6.03;;;3.78;;
45684;SDS011;46836;48.388;16.210;2023-05-17T04:16:30;5.57;;;3.40;;
45684;SDS011;46836;48.388;16.210;2023-05-17T04:19:00;8.27;;;4.00;;
45684;SDS011;46836;48.388;16.210;2023-05-17T04:21:28;5.50;;;4.15;;
45684;SDS011;46836;48.388;16.210;2023-05-17T04:23:55;6.85;;;3.85;;
45684;SDS011;46836;48.388;16.210;2023-05-17T04:26:22;7.88;;;3.85;;
45684;SDS011;46836;48.388;16.210;2023-05-17T04:28:49;5.63;;;3.95;;
45684;SDS011;46836;48.388;16.210;2023-05-17T04:31:17;5.30;;;3.00;;
45684;SDS011;46836;48.388;16.210;2023-05-17T04:33:44;4.90;;;3.95;;
45684;SDS011;46836;48.388;16.210;2023-05-17T04:36:11;5.07;;;3.22;;
45684;SDS011;46836;48.388;16.210;2023-05-17T04:38:39;4.10;;;3.15;;
45684;SDS011;46836;48.388;16.210;2023-05-17T04:41:06;3.33;;;2.97;;
45684;SDS011;46836;48.388;16.210;2023-05-17T04:43:34;4.10;;;3.42;;
45684;SDS011;46836;48.388;16.210;2023-05-17T04:46:02;6.40;;;3.13;;
45684;SDS011;46836;48.388;16.210;2023-05-17T04:48:30;15.02;;;3.75;;
45684;SDS011;46836;48.388;16.210;2023-05-17T04:51:01;4.28;;;3.53;;
45684;SDS011;46836;48.388;16.210;2023-05-17T04:53:32;6.97;;;3.60;;
45684;SDS011;46836;48.388;16.210;2023-05-17T04:55:59;5.68;;;3.10;;
45684;SDS011;46836;48.388;16.210;2023-05-17T04:58:26;6.05;;;3.00;;
45684;SDS011;46836;48.388;16.210;2023-05-17T05:00:53;6.38;;;2.90;;
45684;SDS011;46836;48.388;16.210;2023-05-17T05:03:21;4.05;;;3.20;;
45684;SDS011;46836;48.388;16.210;2023-05-17T05:05:48;2.80;;;2.47;;
45684;SDS011;46836;48.388;16.210;2023-05-17T05:08:16;6.45;;;3.30;;
45684;SDS011;46836;48.388;16.210;2023-05-17T05:10:43;3.55;;;2.22;;
45684;SDS011;46836;48.388;16.210;2023-05-17T05:13:11;5.97;;;3.42;;
45684;SDS011;46836;48.388;16.210;2023-05-17T05:15:38;6.80;;;3.00;;
45684;SDS011;46836;48.388;16.210;2023-05-17T05:18:05;5.53;;;3.35;;
45684;SDS011;46836;48.388;16.210;2023-05-17T05:20:32;3.78;;;2.83;;
45684;SDS011;46836;48.388;16.210;2023-05-17T05:22:59;5.85;;;2.65;;
45684;SDS011;46836;48.388;16.210;2023-05-17T05:25:29;7.55;;;3.10;;
45684;SDS011;46836;48.388;16.210;2023-05-17T05:27:56;5.55;;;2.78;;
45684;SDS011;46836;48.388;16.210;2023-05-17T05:30:23;3.65;;;3.00;;
45684;SDS011;46836;48.388;16.210;2023-05-17T05:32:50;5.32;;;3.13;;
45684;SDS011;46836;48.388;16.210;2023-05-17T05:35:18;5.28;;;3.17;;
45684;SDS011;46836;48.388;16.210;2023-05-17T05:37:45;8.02;;;3.85;;
45684;SDS011;46836;48.388;16.210;2023-05-17T05:40:13;5.43;;;4.05;;
45684;SDS011;46836;48.388;16.210;2023-05-17T05:42:40;6.93;;;3.80;;
45684;SDS011;46836;48.388;16.210;2023-05-17T05:45:08;8.38;;;3.50;;
45684;SDS011;46836;48.388;16.210;2023-05-17T05:47:36;5.55;;;4.00;;
45684;SDS011;46836;48.388;16.210;2023-05-17T05:50:04;7.05;;;3.95;;
45684;SDS011;46836;48.388;16.210;2023-05-17T05:52:32;5.93;;;3.90;;
45684;SDS011;46836;48.388;16.210;2023-05-17T05:54:59;5.63;;;4.25;;
45684;SDS011;46836;48.388;16.210;2023-05-17T05:57:26;5.55;;;4.90;;
45684;SDS011;46836;48.388;16.210;2023-05-17T05:59:53;6.93;;;4.65;;
45684;SDS011;46836;48.388;16.210;2023-05-17T06:02:21;6.90;;;5.18;;
45684;SDS011;46836;48.388;16.210;2023-05-17T06:04:48;7.22;;;5.25;;
45684;SDS011;46836;48.388;16.210;2023-05-17T06:07:15;9.75;;;5.63;;
45684;SDS011;46836;48.388;16.210;2023-05-17T06:09:42;8.60;;;5.47;;
45684;SDS011;46836;48.388;16.210;2023-05-17T06:12:09;7.85;;;5.75;;
45684;SDS011;46836;48.388;16.210;2023-05-17T06:14:36;8.10;;;5.68;;
45684;SDS011;46836;48.388;16.210;2023-05-17T06:17:03;8.98;;;5.65;;
45684;SDS011;46836;48.388;16.210;2023-05-17T06:19:31;8.70;;;6.10;;
45684;SDS011;46836;48.388;16.210;2023-05-17T06:21:58;9.85;;;5.50;;
45684;SDS011;46836;48.388;16.210;2023-05-17T06:24:25;5.53;;;4.65;;
45684;SDS011;46836;48.388;16.210;2023-05-17T06:26:52;6.85;;;4.72;;
45684;SDS011;46836;48.388;16.210;2023-05-17T06:29:19;5.25;;;4.78;;
45684;SDS011;46836;48.388;16.210;2023-05-17T06:31:46;7.22;;;5.28;;
45684;SDS011;46836;48.388;16.210;2023-05-17T06:34:14;7.07;;;6.47;;
45684;SDS011;46836;48.388;16.210;2023-05-17T06:36:43;7.85;;;4.65;;
45684;SDS011;46836;48.388;16.210;2023-05-17T06:39:12;5.90;;;4.50;;
45684;SDS011;46836;48.388;16.210;2023-05-17T06:41:42;9.15;;;5.78;;
45684;SDS011;46836;48.388;16.210;2023-05-17T06:44:11;11.60;;;5.72;;
45684;SDS011;46836;48.388;16.210;2023-05-17T06:46:40;19.00;;;6.10;;
45684;SDS011;46836;48.388;16.210;2023-05-17T06:49:09;3.90;;;3.47;;
45684;SDS011;46836;48.388;16.210;2023-05-17T06:51:36;9.50;;;5.95;;
45684;SDS011;46836;48.388;16.210;2023-05-17T06:54:03;6.78;;;4.40;;
45684;SDS011;46836;48.388;16.210;2023-05-17T06:56:31;6.75;;;4.70;;
45684;SDS011;46836;48.388;16.210;2023-05-17T06:58:58;7.18;;;4.50;;
45684;SDS011;46836;48.388;16.210;2023-05-17T07:01:27;8.40;;;5.03;;
45684;SDS011;46836;48.388;16.210;2023-05-17T07:03:54;6.13;;;3.90;;
45684;SDS011;46836;48.388;16.210;2023-05-17T07:06:22;5.30;;;4.80;;
45684;SDS011;46836;48.388;16.210;2023-05-17T07:08:49;5.43;;;4.60;;
45684;SDS011;46836;48.388;16.210;2023-05-17T07:11:16;6.63;;;4.10;;
45684;SDS011;46836;48.388;16.210;2023-05-17T07:13:43;6.85;;;5.10;;
45684;SDS011;46836;48.388;16.210;2023-05-17T07:16:12;7.03;;;5.05;;
45684;SDS011;46836;48.388;16.210;2023-05-17T07:18:39;7.90;;;5.70;;
45684;SDS011;46836;48.388;16.210;2023-05-17T07:21:06;7.65;;;4.53;;
45684;SDS011;46836;48.388;16.210;2023-05-17T07:23:33;9.70;;;5.93;;
45684;SDS011;46836;48.388;16.210;2023-05-17T07:26:00;6.55;;;4.93;;
45684;SDS011;46836;48.388;16.210;2023-05-17T07:28:28;7.00;;;4.32;;
45684;SDS011;46836;48.388;16.210;2023-05-17T07:30:55;8.02;;;3.80;;
45684;SDS011;46836;48.388;16.210;2023-05-17T07:33:22;6.13;;;4.25;;
45684;SDS011;46836;48.388;16.210;2023-05-17T07:35:52;8.32;;;3.55;;
45684;SDS011;46836;48.388;16.210;2023-05-17T07:38:19;8.80;;;4.10;;
45684;SDS011;46836;48.388;16.210;2023-05-17T07:40:46;6.97;;;3.53;;
45684;SDS011;46836;48.388;16.210;2023-05-17T07:43:15;5.18;;;4.00;;
45684;SDS011;46836;48.388;16.210;2023-05-17T07:45:42;5.97;;;3.40;;
45684;SDS011;46836;48.388;16.210;2023-05-17T07:48:09;7.28;;;3.50;;
45684;SDS011;46836;48.388;16.210;2023-05-17T07:50:36;5.20;;;2.95;;
45684;SDS011;46836;48.388;16.210;2023-05-17T07:53:04;4.10;;;3.33;;
45684;SDS011;46836;48.388;16.210;2023-05-17T07:55:31;7.00;;;4.00;;
45684;SDS011;46836;48.388;16.210;2023-05-17T07:57:58;4.20;;;3.45;;
45684;SDS011;46836;48.388;16.210;2023-05-17T08:00:25;6.85;;;3.63;;
45684;SDS011;46836;48.388;16.210;2023-05-17T08:02:53;3.55;;;3.28;;
45684;SDS011;46836;48.388;16.210;2023-05-17T08:05:21;9.07;;;4.30;;
45684;SDS011;46836;48.388;16.210;2023-05-17T08:07:49;6.20;;;3.50;;
45684;SDS011;46836;48.388;16.210;2023-05-17T08:10:19;5.80;;;3.20;;
45684;SDS011;46836;48.388;16.210;2023-05-17T08:12:47;10.65;;;3.78;;
45684;SDS011;46836;48.388;16.210;2023-05-17T08:15:14;6.30;;;4.05;;
45684;SDS011;46836;48.388;16.210;2023-05-17T08:17:41;4.45;;;3.80;;
45684;SDS011;46836;48.388;16.210;2023-05-17T08:20:10;5.65;;;3.20;;
45684;SDS011;46836;48.388;16.210;2023-05-17T08:22:41;6.90;;;3.40;;
45684;SDS011;46836;48.388;16.210;2023-05-17T08:25:10;6.30;;;3.15;;
45684;SDS011;46836;48.388;16.210;2023-05-17T08:27:41;4.13;;;3.33;;
45684;SDS011;46836;48.388;16.210;2023-05-17T08:30:09;6.35;;;3.80;;
45684;SDS011;46836;48.388;16.210;2023-05-17T08:33:05;4.45;;;3.30;;
45684;SDS011;46836;48.388;16.210;2023-05-17T08:35:37;6.80;;;3.33;;
45684;SDS011;46836;48.388;16.210;2023-05-17T08:38:06;5.18;;;3.80;;
45684;SDS011;46836;48.388;16.210;2023-05-17T08:40:35;6.75;;;4.10;;
45684;SDS011;46836;48.388;16.210;2023-05-17T08:43:03;6.07;;;3.25;;
45684;SDS011;46836;48.388;16.210;2023-05-17T08:45:33;9.25;;;4.78;;
45684;SDS011;46836;48.388;16.210;2023-05-17T08:48:02;5.82;;;4.00;;
45684;SDS011;46836;48.388;16.210;2023-05-17T08:50:32;4.30;;;3.45;;
45684;SDS011;46836;48.388;16.210;2023-05-17T08:53:06;4.22;;;3.33;;
45684;SDS011;46836;48.388;16.210;2023-05-17T08:55:36;9.27;;;3.78;;
45684;SDS011;46836;48.388;16.210;2023-05-17T08:58:03;7.45;;;3.67;;
45684;SDS011;46836;48.388;16.210;2023-05-17T09:00:32;9.00;;;4.20;;
45684;SDS011;46836;48.388;16.210;2023-05-17T09:03:00;8.35;;;3.58;;
45684;SDS011;46836;48.388;16.210;2023-05-17T09:05:28;8.18;;;3.38;;
45684;SDS011;46836;48.388;16.210;2023-05-17T09:07:56;7.32;;;3.45;;
45684;SDS011;46836;48.388;16.210;2023-05-17T09:10:24;8.57;;;3.30;;
45684;SDS011;46836;48.388;16.210;2023-05-17T09:12:52;5.45;;;3.35;;
45684;SDS011;46836;48.388;16.210;2023-05-17T09:15:19;7.43;;;4.00;;
45684;SDS011;46836;48.388;16.210;2023-05-17T09:17:50;4.40;;;3.13;;
45684;SDS011;46836;48.388;16.210;2023-05-17T09:20:24;4.95;;;3.13;;
45684;SDS011;46836;48.388;16.210;2023-05-17T09:23:02;5.65;;;3.35;;
45684;SDS011;46836;48.388;16.210;2023-05-17T09:25:30;4.78;;;3.03;;
45684;SDS011;46836;48.388;16.210;2023-05-17T09:28:01;5.80;;;3.00;;
45684;SDS011;46836;48.388;16.210;2023-05-17T09:30:30;5.30;;;2.72;;
45684;SDS011;46836;48.388;16.210;2023-05-17T09:33:08;4.18;;;2.80;;
45684;SDS011;46836;48.388;16.210;2023-05-17T09:35:38;4.95;;;3.40;;
45684;SDS011;46836;48.388;16.210;2023-05-17T09:38:08;3.75;;;2.90;;
45684;SDS011;46836;48.388;16.210;2023-05-17T09:40:41;7.53;;;4.13;;
45684;SDS011;46836;48.388;16.210;2023-05-17T09:43:10;4.47;;;3.28;;
45684;SDS011;46836;48.388;16.210;2023-05-17T09:45:38;4.43;;;3.10;;
45684;SDS011;46836;48.388;16.210;2023-05-17T09:48:12;5.40;;;3.10;;
45684;SDS011;46836;48.388;16.210;2023-05-17T09:50:47;8.68;;;3.45;;
45684;SDS011;46836;48.388;16.210;2023-05-17T09:53:25;5.82;;;3.40;;
45684;SDS011;46836;48.388;16.210;2023-05-17T09:56:05;7.78;;;4.43;;
45684;SDS011;46836;48.388;16.210;2023-05-17T09:58:34;6.07;;;4.20;;
45684;SDS011;46836;48.388;16.210;2023-05-17T10:01:03;5.45;;;3.40;;
45684;SDS011;46836;48.388;16.210;2023-05-17T10:03:32;6.82;;;3.80;;
45684;SDS011;46836;48.388;16.210;2023-05-17T10:06:07;8.20;;;4.60;;
45684;SDS011;46836;48.388;16.210;2023-05-17T10:08:43;7.35;;;4.38;;
45684;SDS011;46836;48.388;16.210;2023-05-17T10:11:11;7.57;;;4.80;;
45684;SDS011;46836;48.388;16.210;2023-05-17T10:13:43;5.70;;;3.33;;
45684;SDS011;46836;48.388;16.210;2023-05-17T10:16:40;4.85;;;3.42;;
45684;SDS011;46836;48.388;16.210;2023-05-17T10:19:09;7.22;;;4.72;;
45684;SDS011;46836;48.388;16.210;2023-05-17T10:21:37;10.73;;;7.45;;
45684;SDS011;46836;48.388;16.210;2023-05-17T10:24:06;8.63;;;6.65;;
45684;SDS011;46836;48.388;16.210;2023-05-17T10:26:35;8.35;;;5.03;;
45684;SDS011;46836;48.388;16.210;2023-05-17T10:29:04;11.65;;;5.75;;
45684;SDS011;46836;48.388;16.210;2023-05-17T10:31:32;8.55;;;5.13;;
45684;SDS011;46836;48.388;16.210;2023-05-17T10:34:00;8.65;;;4.80;;
45684;SDS011;46836;48.388;16.210;2023-05-17T10:36:28;9.27;;;6.90;;
45684;SDS011;46836;48.388;16.210;2023-05-17T10:38:57;6.40;;;4.75;;
45684;SDS011;46836;48.388;16.210;2023-05-17T10:41:25;6.25;;;4.93;;
45684;SDS011;46836;48.388;16.210;2023-05-17T10:43:57;9.38;;;4.45;;
45684;SDS011;46836;48.388;16.210;2023-05-17T10:46:28;7.03;;;4.35;;
45684;SDS011;46836;48.388;16.210;2023-05-17T10:48:56;7.15;;;4.20;;
45684;SDS011;46836;48.388;16.210;2023-05-17T10:51:29;10.05;;;5.03;;
45684;SDS011;46836;48.388;16.210;2023-05-17T10:54:06;6.45;;;4.70;;
45684;SDS011;46836;48.388;16.210;2023-05-17T10:56:40;11.68;;;4.95;;
45684;SDS011;46836;48.388;16.210;2023-05-17T11:12:43;6.47;;;4.03;;
45684;SDS011;46836;48.388;16.210;2023-05-17T11:15:15;6.28;;;4.20;;
45684;SDS011;46836;48.388;16.210;2023-05-17T11:25:10;10.18;;;4.50;;
45684;SDS011;46836;48.388;16.210;2023-05-17T11:27:43;6.45;;;4.63;;
45684;SDS011;46836;48.388;16.210;2023-05-17T11:30:15;6.35;;;4.60;;
45684;SDS011;46836;48.388;16.210;2023-05-17T11:32:59;5.28;;;4.50;;
45684;SDS011;46836;48.388;16.210;2023-05-17T11:35:42;5.35;;;4.65;;
45684;SDS011;46836;48.388;16.210;2023-05-17T11:38:13;5.03;;;4.50;;
45684;SDS011;46836;48.388;16.210;2023-05-17T11:40:44;8.88;;;4.88;;
45684;SDS011;46836;48.388;16.210;2023-05-17T11:43:17;6.72;;;5.05;;
45684;SDS011;46836;48.388;16.210;2023-05-17T11:45:51;8.55;;;5.45;;
45684;SDS011;46836;48.388;16.210;2023-05-17T11:48:20;7.78;;;5.00;;
45684;SDS011;46836;48.388;16.210;2023-05-17T11:50:53;6.70;;;5.97;;
45684;SDS011;46836;48.388;16.210;2023-05-17T11:53:23;12.70;;;6.13;;
45684;SDS011;46836;48.388;16.210;2023-05-17T11:55:52;11.60;;;6.28;;
45684;SDS011;46836;48.388;16.210;2023-05-17T11:58:23;8.32;;;5.60;;
45684;SDS011;46836;48.388;16.210;2023-05-17T12:00:53;5.72;;;5.22;;
45684;SDS011;46836;48.388;16.210;2023-05-17T12:03:26;8.38;;;5.97;;
45684;SDS011;46836;48.388;16.210;2023-05-17T12:06:07;11.15;;;5.75;;
45684;SDS011;46836;48.388;16.210;2023-05-17T12:08:37;6.57;;;4.85;;
45684;SDS011;46836;48.388;16.210;2023-05-17T12:11:05;8.38;;;5.50;;
45684;SDS011;46836;48.388;16.210;2023-05-17T12:13:36;7.93;;;5.05;;
45684;SDS011;46836;48.388;16.210;2023-05-17T12:16:06;6.70;;;6.10;;
45684;SDS011;46836;48.388;16.210;2023-05-17T12:18:50;10.32;;;5.70;;
45684;SDS011;46836;48.388;16.210;2023-05-17T12:21:18;7.57;;;5.90;;
45684;SDS011;46836;48.388;16.210;2023-05-17T12:23:49;14.52;;;6.45;;
45684;SDS011;46836;48.388;16.210;2023-05-17T12:26:20;16.02;;;7.95;;
45684;SDS011;46836;48.388;16.210;2023-05-17T12:31:27;9.15;;;6.10;;
45684;SDS011;46836;48.388;16.210;2023-05-17T12:33:55;9.07;;;5.40;;
45684;SDS011;46836;48.388;16.210;2023-05-17T12:36:25;18.05;;;7.45;;
45684;SDS011;46836;48.388;16.210;2023-05-17T12:38:54;8.30;;;5.60;;
45684;SDS011;46836;48.388;16.210;2023-05-17T12:41:22;6.85;;;5.57;;
45684;SDS011;46836;48.388;16.210;2023-05-17T12:43:51;7.28;;;6.50;;
45684;SDS011;46836;48.388;16.210;2023-05-17T12:46:39;17.08;;;6.93;;
45684;SDS011;46836;48.388;16.210;2023-05-17T12:49:06;8.30;;;5.70;;
45684;SDS011;46836;48.388;16.210;2023-05-17T12:51:44;14.80;;;7.38;;
45684;SDS011;46836;48.388;16.210;2023-05-17T12:56:52;12.95;;;8.30;;
45684;SDS011;46836;48.388;16.210;2023-05-17T12:59:20;23.65;;;7.32;;
45684;SDS011;46836;48.388;16.210;2023-05-17T13:01:51;10.32;;;6.00;;
45684;SDS011;46836;48.388;16.210;2023-05-17T13:04:29;9.55;;;6.30;;
45684;SDS011;46836;48.388;16.210;2023-05-17T13:06:58;10.38;;;6.40;;
45684;SDS011;46836;48.388;16.210;2023-05-17T13:09:27;14.13;;;5.80;;
45684;SDS011;46836;48.388;16.210;2023-05-17T13:12:00;6.35;;;5.43;;
45684;SDS011;46836;48.388;16.210;2023-05-17T13:17:10;7.47;;;5.40;;
45684;SDS011;46836;48.388;16.210;2023-05-17T13:19:38;9.02;;;5.28;;
45684;SDS011;46836;48.388;16.210;2023-05-17T13:22:06;8.18;;;5.03;;
45684;SDS011;46836;48.388;16.210;2023-05-17T13:24:34;7.78;;;6.10;;
45684;SDS011;46836;48.388;16.210;2023-05-17T13:27:02;14.40;;;6.00;;
45684;SDS011;46836;48.388;16.210;2023-05-17T13:29:31;7.90;;;5.18;;
45684;SDS011;46836;48.388;16.210;2023-05-17T13:32:06;8.15;;;5.75;;
45684;SDS011;46836;48.388;16.210;2023-05-17T13:34:34;7.60;;;4.75;;
45684;SDS011;46836;48.388;16.210;2023-05-17T13:37:01;6.88;;;5.22;;
45684;SDS011;46836;48.388;16.210;2023-05-17T13:39:29;8.65;;;5.88;;
45684;SDS011;46836;48.388;16.210;2023-05-17T13:41:56;7.00;;;5.95;;
45684;SDS011;46836;48.388;16.210;2023-05-17T13:44:24;8.52;;;5.97;;
45684;SDS011;46836;48.388;16.210;2023-05-17T13:46:51;8.50;;;6.03;;
45684;SDS011;46836;48.388;16.210;2023-05-17T13:49:18;6.47;;;5.82;;
45684;SDS011;46836;48.388;16.210;2023-05-17T13:51:46;7.60;;;5.65;;
45684;SDS011;46836;48.388;16.210;2023-05-17T13:54:13;7.28;;;5.70;;
45684;SDS011;46836;48.388;16.210;2023-05-17T13:56:40;11.57;;;6.20;;
45684;SDS011;46836;48.388;16.210;2023-05-17T13:59:07;9.50;;;6.57;;
45684;SDS011;46836;48.388;16.210;2023-05-17T14:01:34;8.18;;;6.70;;
45684;SDS011;46836;48.388;16.210;2023-05-17T14:04:02;8.95;;;7.40;;
45684;SDS011;46836;48.388;16.210;2023-05-17T14:06:29;9.55;;;7.00;;
45684;SDS011;46836;48.388;16.210;2023-05-17T14:08:57;9.95;;;7.10;;
45684;SDS011;46836;48.388;16.210;2023-05-17T14:11:26;11.65;;;7.82;;
45684;SDS011;46836;48.388;16.210;2023-05-17T14:13:53;10.60;;;7.78;;
45684;SDS011;46836;48.388;16.210;2023-05-17T14:16:20;9.68;;;7.80;;
45684;SDS011;46836;48.388;16.210;2023-05-17T14:18:48;9.90;;;8.00;;
45684;SDS011;46836;48.388;16.210;2023-05-17T14:21:15;10.60;;;8.00;;
45684;SDS011;46836;48.388;16.210;2023-05-17T14:23:43;22.88;;;11.18;;
45684;SDS011;46836;48.388;16.210;2023-05-17T14:26:10;16.05;;;14.38;;
45684;SDS011;46836;48.388;16.210;2023-05-17T14:28:37;10.32;;;9.23;;
45684;SDS011;46836;48.388;16.210;2023-05-17T14:31:07;10.82;;;9.65;;
45684;SDS011;46836;48.388;16.210;2023-05-17T14:33:36;8.80;;;7.80;;
45684;SDS011;46836;48.388;16.210;2023-05-17T14:36:03;18.65;;;8.13;;
45684;SDS011;46836;48.388;16.210;2023-05-17T14:38:30;11.85;;;8.10;;
45684;SDS011;46836;48.388;16.210;2023-05-17T14:40:57;10.07;;;7.00;;
45684;SDS011;46836;48.388;16.210;2023-05-17T14:43:28;9.18;;;6.45;;
45684;SDS011;46836;48.388;16.210;2023-05-17T14:45:55;12.77;;;7.35;;
45684;SDS011;46836;48.388;16.210;2023-05-17T14:48:22;10.65;;;8.35;;
45684;SDS011;46836;48.388;16.210;2023-05-17T14:50:50;9.68;;;8.65;;
45684;SDS011;46836;48.388;16.210;2023-05-17T14:53:18;11.75;;;9.25;;
45684;SDS011;46836;48.388;16.210;2023-05-17T14:55:47;13.43;;;10.38;;
45684;SDS011;46836;48.388;16.210;2023-05-17T14:58:15;17.08;;;10.15;;
45684;SDS011;46836;48.388;16.210;2023-05-17T15:00:42;11.75;;;10.38;;
45684;SDS011;46836;48.388;16.210;2023-05-17T15:03:16;13.23;;;10.68;;
45684;SDS011;46836;48.388;16.210;2023-05-17T15:05:51;11.15;;;9.75;;
45684;SDS011;46836;48.388;16.210;2023-05-17T15:08:20;17.65;;;11.05;;
45684;SDS011;46836;48.388;16.210;2023-05-17T15:10:48;14.45;;;10.10;;
45684;SDS011;46836;48.388;16.210;2023-05-17T15:13:16;14.05;;;10.02;;
45684;SDS011;46836;48.388;16.210;2023-05-17T15:15:43;14.38;;;10.70;;
45684;SDS011;46836;48.388;16.210;2023-05-17T15:18:12;11.20;;;8.57;;
45684;SDS011;46836;48.388;16.210;2023-05-17T15:20:40;14.25;;;8.65;;